createdAt,value
2022-12-23T00:02:12.093Z,135.20
2022-12-23T00:07:13.687Z,132.70
2022-12-23T00:12:34.142Z,119.30
2022-12-23T00:17:45.593Z,109.60
2022-12-23T00:23:05.551Z,68.50
2022-12-23T00:28:17.693Z,105.90
2022-12-23T00:33:23.278Z,58.20
2022-12-23T00:38:45.089Z,103.20
2022-12-23T00:43:46.705Z,105.20
2022-12-23T00:49:07.086Z,81.40
2022-12-23T00:54:08.746Z,70.80
2022-12-23T00:59:10.288Z,83.80
2022-12-23T01:04:35.552Z,91.40
2022-12-23T01:09:37.298Z,87.90
2022-12-23T01:14:39.098Z,92.90
2022-12-23T01:19:40.672Z,96.00
2022-12-23T01:24:42.215Z,96.20
2022-12-23T01:29:45.494Z,101.00
2022-12-23T01:34:47.021Z,98.70
2022-12-23T01:39:48.957Z,84.60
2022-12-23T01:45:31.147Z,75.20
2022-12-23T01:50:40.532Z,77.20
2022-12-23T01:56:16.511Z,77.40
2022-12-23T02:01:37.013Z,71.00
2022-12-23T02:07:03.291Z,89.00
2022-12-23T02:12:41.237Z,74.40
2022-12-23T02:18:13.740Z,70.60
2022-12-23T02:24:02.944Z,74.30
2022-12-23T02:29:37.712Z,76.50
2022-12-23T02:35:28.907Z,76.60
2022-12-23T02:41:07.986Z,83.20
2022-12-23T02:46:31.326Z,77.80
2022-12-23T02:51:44.081Z,73.30
2022-12-23T02:56:50.481Z,81.10
2022-12-23T03:01:54.573Z,82.30
2022-12-23T03:07:02.824Z,90.80
2022-12-23T03:12:22.187Z,80.90
2022-12-23T03:17:48.630Z,82.40
2022-12-23T03:23:05.814Z,97.60
2022-12-23T03:28:20.216Z,97.60
2022-12-23T03:33:34.425Z,92.10
2022-12-23T03:38:39.888Z,106.10
2022-12-23T03:43:51.277Z,101.70
2022-12-23T03:48:59.247Z,116.30
2022-12-23T03:54:11.471Z,124.00
2022-12-23T03:59:34.986Z,122.40
2022-12-23T04:05:01.628Z,100.20
2022-12-23T04:10:04.839Z,140.90
2022-12-23T04:15:12.518Z,133.20
2022-12-23T04:20:15.068Z,133.40
2022-12-23T04:25:18.122Z,135.80
2022-12-23T04:30:19.842Z,144.90
2022-12-23T04:35:22.040Z,155.30
2022-12-23T04:40:23.740Z,140.50
2022-12-23T04:45:25.286Z,148.40
2022-12-23T04:50:26.914Z,153.00
2022-12-23T04:55:28.573Z,147.80
2022-12-23T05:00:35.465Z,169.60
2022-12-23T05:05:44.456Z,179.60
2022-12-23T05:10:45.994Z,156.50
2022-12-23T05:15:53.595Z,166.50
2022-12-23T05:20:55.286Z,158.90
2022-12-23T05:25:57.227Z,166.90
2022-12-23T05:31:02.068Z,175.90
2022-12-23T05:36:04.825Z,174.90
2022-12-23T05:41:07.268Z,172.40
2022-12-23T05:46:08.889Z,164.00
2022-12-23T05:51:10.481Z,175.00
2022-12-23T05:56:12.034Z,165.90
2022-12-23T06:01:13.792Z,168.00
2022-12-23T06:06:15.352Z,140.90
2022-12-23T06:11:17.035Z,147.70
2022-12-23T06:16:18.744Z,122.60
2022-12-23T06:21:20.366Z,130.30
2022-12-23T06:26:22.393Z,124.50
2022-12-23T06:31:24.025Z,136.60
2022-12-23T06:36:25.748Z,142.10
2022-12-23T06:41:27.303Z,163.30
2022-12-23T06:46:28.911Z,142.40
2022-12-23T06:51:30.594Z,147.80
2022-12-23T06:56:35.260Z,172.20
2022-12-23T07:01:36.975Z,126.40
2022-12-23T07:06:39.225Z,184.40
2022-12-23T07:11:40.772Z,159.80
2022-12-23T07:16:42.429Z,168.40
2022-12-23T07:21:43.978Z,175.80
2022-12-23T07:26:45.497Z,204.70
2022-12-23T07:31:47.061Z,187.90
2022-12-23T07:36:48.628Z,173.60
2022-12-23T07:41:59.009Z,177.30
2022-12-23T07:47:11.006Z,185.90
2022-12-23T07:52:12.556Z,183.20
2022-12-23T07:57:14.104Z,226.60
2022-12-23T08:02:15.759Z,250.90
2022-12-23T08:07:17.554Z,252.10
2022-12-23T08:12:19.238Z,208.50
2022-12-23T08:17:25.133Z,176.00
2022-12-23T08:22:26.753Z,289.40
2022-12-23T08:27:28.326Z,406.20
2022-12-23T08:32:29.894Z,169.60
2022-12-23T08:37:31.427Z,158.20
2022-12-23T08:42:33.000Z,166.60
2022-12-23T08:47:34.597Z,177.60
2022-12-23T08:52:36.205Z,169.10
2022-12-23T08:57:37.897Z,172.10
2022-12-23T09:02:39.744Z,161.00
2022-12-23T09:07:41.531Z,166.10
2022-12-23T09:12:43.136Z,167.80
2022-12-23T09:17:44.695Z,173.80
2022-12-23T09:22:46.219Z,154.30
2022-12-23T09:27:47.839Z,152.50
2022-12-23T09:32:50.041Z,149.20
2022-12-23T09:37:51.633Z,174.50
2022-12-23T09:43:44.850Z,188.40
2022-12-23T09:49:00.156Z,185.50
2022-12-23T09:54:11.988Z,151.00
2022-12-23T09:59:27.704Z,186.50
2022-12-23T10:04:35.998Z,174.90
2022-12-23T10:09:42.091Z,162.30
2022-12-23T10:14:47.127Z,186.40
2022-12-23T10:19:50.219Z,175.30
2022-12-23T10:24:56.253Z,183.70
2022-12-23T10:30:42.443Z,190.40
2022-12-23T10:35:41.979Z,174.20
2022-12-23T10:41:08.797Z,173.80
2022-12-23T10:46:54.277Z,167.00
2022-12-23T10:52:11.354Z,188.90
2022-12-23T10:57:19.812Z,165.70
2022-12-23T11:02:42.878Z,172.60
2022-12-23T11:07:46.718Z,177.80
2022-12-23T11:12:52.635Z,175.60
2022-12-23T11:18:12.506Z,177.20
2022-12-23T11:23:28.807Z,183.40
2022-12-23T11:28:33.541Z,153.90
2022-12-23T11:34:05.167Z,173.00
2022-12-23T11:39:09.678Z,163.20
2022-12-23T11:44:20.375Z,153.10
2022-12-23T11:49:26.541Z,163.90
2022-12-23T11:54:31.033Z,149.50
2022-12-23T11:59:38.459Z,144.40
2022-12-23T12:04:42.068Z,128.50
2022-12-23T12:09:45.347Z,140.40
2022-12-23T12:14:51.909Z,143.20
2022-12-23T12:20:00.798Z,150.00
2022-12-23T12:25:41.015Z,142.90
2022-12-23T12:30:58.837Z,93.00
2022-12-23T12:36:15.222Z,143.70
2022-12-23T12:41:40.364Z,150.90
2022-12-23T12:47:01.855Z,171.60
2022-12-23T12:52:21.210Z,131.50
2022-12-23T12:57:24.295Z,161.20
2022-12-23T13:02:28.609Z,141.40
2022-12-23T13:07:57.970Z,164.60
2022-12-23T13:13:10.005Z,267.20
2022-12-23T13:18:33.060Z,256.00
2022-12-23T13:23:46.428Z,121.80
2022-12-23T13:29:21.126Z,128.50
2022-12-23T13:35:08.754Z,140.20
2022-12-23T13:40:35.317Z,167.40
2022-12-23T13:45:40.029Z,193.90
2022-12-23T13:50:52.963Z,161.50
2022-12-23T13:56:21.887Z,133.50
2022-12-23T14:01:35.949Z,146.50
2022-12-23T14:06:37.461Z,189.80
2022-12-23T14:11:39.127Z,137.00
2022-12-23T14:17:15.797Z,122.60
2022-12-23T14:22:38.612Z,123.40
2022-12-23T14:28:09.293Z,137.80
2022-12-23T14:33:13.901Z,138.00
2022-12-23T14:38:15.421Z,168.80
2022-12-23T14:43:26.270Z,136.90
2022-12-23T14:48:34.077Z,146.50
2022-12-23T14:53:59.410Z,197.10
2022-12-23T14:59:46.295Z,199.80
2022-12-23T15:04:55.307Z,163.40
2022-12-23T15:10:20.284Z,137.80
2022-12-23T15:15:27.701Z,163.80
2022-12-23T15:20:29.617Z,158.30
2022-12-23T15:25:34.767Z,194.30
2022-12-23T15:30:49.114Z,149.80
2022-12-23T15:35:51.481Z,119.70
2022-12-23T15:41:12.760Z,120.60
2022-12-23T15:46:26.800Z,85.50
2022-12-23T15:52:05.638Z,110.50
2022-12-23T15:57:01.190Z,122.60
2022-12-23T16:07:43.012Z,223.20
2022-12-23T16:12:44.852Z,240.10
2022-12-23T16:17:46.374Z,269.20
2022-12-23T16:22:58.355Z,254.70
2022-12-23T16:28:13.915Z,217.00
2022-12-23T16:33:49.599Z,358.80
2022-12-23T16:39:08.968Z,380.30
2022-12-23T16:44:10.890Z,359.50
2022-12-23T16:49:20.519Z,477.90
2022-12-23T16:54:22.494Z,363.90
2022-12-23T16:59:25.735Z,329.60
2022-12-23T17:04:27.476Z,291.50
2022-12-23T17:09:29.073Z,311.50
2022-12-23T17:14:30.998Z,202.60
2022-12-23T17:19:33.437Z,258.50
2022-12-23T17:24:35.187Z,245.10
2022-12-23T17:29:36.752Z,219.20
2022-12-23T17:34:39.161Z,259.20
2022-12-23T17:39:43.199Z,223.80
2022-12-23T17:44:44.722Z,248.80
2022-12-23T17:49:46.987Z,281.10
2022-12-23T17:54:50.656Z,248.30
2022-12-23T17:59:53.966Z,261.00
2022-12-23T18:04:55.930Z,226.20
2022-12-23T18:09:57.526Z,241.60
2022-12-23T18:15:00.263Z,257.60
2022-12-23T18:20:03.625Z,258.90
2022-12-23T18:25:05.794Z,274.30
2022-12-23T18:30:08.724Z,250.30
2022-12-23T18:35:27.111Z,186.90
2022-12-23T18:40:32.708Z,202.30
2022-12-23T18:45:37.371Z,211.30
2022-12-23T18:50:41.302Z,739.50
2022-12-23T18:55:44.093Z,733.60
2022-12-23T19:00:47.776Z,269.00
2022-12-23T19:05:51.536Z,303.20
2022-12-23T19:10:54.780Z,228.10
2022-12-23T19:15:56.365Z,207.50
2022-12-23T19:21:02.224Z,301.70
2022-12-23T19:26:05.638Z,406.10
2022-12-23T19:31:13.877Z,353.30
2022-12-23T19:36:21.993Z,367.90
2022-12-23T19:41:24.299Z,286.10
2022-12-23T19:46:26.182Z,277.80
2022-12-23T19:51:27.722Z,253.80
2022-12-23T19:56:29.973Z,208.10
2022-12-23T20:01:31.653Z,201.30
2022-12-23T20:06:37.793Z,224.40
2022-12-23T20:11:46.521Z,226.20
2022-12-23T20:16:48.920Z,183.70
2022-12-23T20:21:51.786Z,163.20
2022-12-23T20:26:53.294Z,131.80
2022-12-23T20:31:55.548Z,150.40
2022-12-23T20:36:57.079Z,153.30
2022-12-23T20:41:58.699Z,133.50
2022-12-23T20:47:00.364Z,129.80
2022-12-23T20:52:02.723Z,143.60
2022-12-23T20:57:05.326Z,108.90
2022-12-23T21:02:11.739Z,96.80
2022-12-23T21:07:13.456Z,101.30
2022-12-23T21:12:14.990Z,101.00
2022-12-23T21:17:16.554Z,35.80
2022-12-23T21:22:18.989Z,15.20
2022-12-23T21:27:24.242Z,10.60
2022-12-23T21:32:26.497Z,14.20
2022-12-23T21:37:37.196Z,17.50
2022-12-23T21:42:38.953Z,22.60
2022-12-23T21:47:40.480Z,23.50
2022-12-23T21:52:41.987Z,19.30
2022-12-23T21:57:44.203Z,16.50
2022-12-23T22:02:45.776Z,17.10
2022-12-23T22:07:47.472Z,19.40
2022-12-23T22:12:49.017Z,12.60
2022-12-23T22:17:51.099Z,20.10
2022-12-23T22:22:53.940Z,22.90
2022-12-23T22:27:55.428Z,41.80
2022-12-23T22:32:57.022Z,55.20
2022-12-23T22:37:58.685Z,72.70
2022-12-23T22:43:00.191Z,44.70
2022-12-23T22:48:01.749Z,34.10
2022-12-23T22:53:04.922Z,55.80
2022-12-23T22:58:07.081Z,47.50
2022-12-23T23:03:08.628Z,59.10
2022-12-23T23:08:11.785Z,80.60
2022-12-23T23:13:13.294Z,82.60
2022-12-23T23:18:15.786Z,43.40
2022-12-23T23:23:17.399Z,39.30
2022-12-23T23:28:18.943Z,41.60
2022-12-23T23:33:20.429Z,33.80
2022-12-23T23:38:23.003Z,28.70
2022-12-23T23:43:24.889Z,33.20
2022-12-23T23:48:26.466Z,38.60
2022-12-23T23:53:28.056Z,32.10
2022-12-23T23:58:29.929Z,20.80
